Time;durP1;ratioP1;P1;durP2;ratioP2;P2;SDS_P1;SDS_P2;PMS_P1;PMS_P2;Temp;Humidity;BMP_temperature;BMP_pressure;BME280_temperature;BME280_humidity;BME280_pressure;Samples;Min_cycle;Max_cycle;Signal;HPM_P1;HPM_P2
2021/05/13 03:56:52;;;;;;;8.80;7.22;;;9.80;99.90;;;;;;4988133;28;20062;-69
2021/05/13 03:59:19;;;;;;;9.95;7.03;;;10.20;99.90;;;;;;4992382;28;20057;-69
2021/05/13 04:02:08;;;;;;;8.13;6.75;;;10.60;99.90;;;;;;4992450;28;20072;-69
2021/05/13 04:04:35;;;;;;;11.75;7.07;;;10.70;99.90;;;;;;4992743;28;20026;-69
2021/05/13 04:07:01;;;;;;;8.45;6.50;;;11.00;99.90;;;;;;4992011;28;20478;-70
2021/05/13 04:09:26;;;;;;;8.68;6.30;;;11.40;99.90;;;;;;4992215;28;20124;-69
2021/05/13 04:11:53;;;;;;;7.60;6.13;;;11.70;99.90;;;;;;4992035;28;20054;-69
2021/05/13 04:14:20;;;;;;;7.78;6.28;;;12.00;99.90;;;;;;4991992;28;20038;-70
2021/05/13 04:16:52;;;;;;;9.02;6.22;;;12.40;99.90;;;;;;4991876;28;20066;-70
2021/05/13 04:19:18;;;;;;;9.00;6.40;;;12.70;99.90;;;;;;4991950;28;20025;-70
2021/05/13 04:21:44;;;;;;;7.60;6.10;;;13.00;99.90;;;;;;4991459;28;20026;-69
2021/05/13 04:24:11;;;;;;;12.05;5.90;;;13.20;99.90;;;;;;4991944;28;20026;-70
2021/05/13 04:26:39;;;;;;;6.50;5.45;;;13.40;99.40;;;;;;4992044;28;20030;-69
2021/05/13 04:29:06;;;;;;;10.07;6.40;;;13.50;98.80;;;;;;4991959;28;20022;-70
2021/05/13 04:31:32;;;;;;;7.18;5.43;;;13.80;98.70;;;;;;4991942;28;20026;-68
2021/05/13 04:33:58;;;;;;;8.55;4.72;;;14.20;97.60;;;;;;4988204;28;20034;-67
2021/05/13 04:36:24;;;;;;;16.85;6.18;;;14.60;95.60;;;;;;4982152;28;20027;-67
2021/05/13 04:38:49;;;;;;;5.93;5.32;;;15.10;93.70;;;;;;4991979;28;20500;-66
2021/05/13 04:41:15;;;;;;;6.28;5.10;;;15.50;91.10;;;;;;4991903;28;20031;-67
2021/05/13 04:43:41;;;;;;;8.00;4.50;;;16.00;87.80;;;;;;4991997;28;20027;-67
2021/05/13 04:46:07;;;;;;;5.25;4.63;;;16.40;84.30;;;;;;4991886;28;20037;-71
2021/05/13 04:51:27;;;;;;;9.48;4.80;;;16.20;81.00;;;;;;4959991;28;20038;-74
2021/05/13 04:53:54;;;;;;;5.32;4.22;;;16.30;81.80;;;;;;4991789;28;20022;-72
2021/05/13 04:56:20;;;;;;;8.85;4.88;;;16.40;80.50;;;;;;4970848;28;20565;-72
2021/05/13 04:58:47;;;;;;;6.95;4.72;;;16.20;79.80;;;;;;4972520;28;20031;-74
2021/05/13 05:01:13;;;;;;;6.85;4.70;;;16.00;81.40;;;;;;4972293;28;20026;-71
2021/05/13 05:03:38;;;;;;;5.72;4.88;;;15.90;82.40;;;;;;4972528;28;20032;-71
2021/05/13 05:06:05;;;;;;;9.18;4.78;;;16.10;80.60;;;;;;4972528;28;20360;-73
2021/05/13 05:08:31;;;;;;;7.78;4.63;;;16.00;80.20;;;;;;4972182;28;20387;-73
2021/05/13 05:10:57;;;;;;;7.15;4.60;;;16.30;79.90;;;;;;4971180;28;20027;-73
2021/05/13 05:13:23;;;;;;;5.38;4.80;;;16.60;77.40;;;;;;4972190;28;20065;-74
2021/05/13 05:15:48;;;;;;;9.63;5.25;;;16.70;76.10;;;;;;4973905;28;20062;-74
2021/05/13 05:18:18;;;;;;;11.43;5.22;;;16.80;75.70;;;;;;4972304;28;20030;-74
2021/05/13 05:20:44;;;;;;;9.68;5.10;;;16.70;75.50;;;;;;4972186;28;20026;-74
2021/05/13 05:23:10;;;;;;;9.60;5.38;;;16.70;76.40;;;;;;4971981;28;20030;-74
2021/05/13 05:25:37;;;;;;;7.45;4.55;;;16.70;76.30;;;;;;4972079;28;20019;-74
2021/05/13 05:28:03;;;;;;;6.88;4.80;;;16.90;75.90;;;;;;4972417;28;20121;-73
2021/05/13 05:30:32;;;;;;;6.03;4.68;;;17.10;76.00;;;;;;4972126;28;20033;-73
2021/05/13 05:32:59;;;;;;;8.70;4.90;;;17.40;74.50;;;;;;4973770;28;20475;-73
2021/05/13 05:35:26;;;;;;;6.60;4.57;;;17.80;73.30;;;;;;4972838;28;20045;-73
2021/05/13 05:37:52;;;;;;;8.50;4.68;;;17.70;71.90;;;;;;4975286;28;20058;-72
2021/05/13 05:40:19;;;;;;;7.60;4.53;;;17.80;71.80;;;;;;4975319;28;20027;-72
2021/05/13 05:42:45;;;;;;;9.73;4.53;;;17.90;71.20;;;;;;4969945;28;20465;-72
2021/05/13 05:45:11;;;;;;;10.85;4.78;;;18.30;70.70;;;;;;4975142;28;20443;-73
2021/05/13 05:47:37;;;;;;;10.23;5.03;;;18.60;69.60;;;;;;4975044;28;20134;-72
2021/05/13 05:50:04;;;;;;;11.20;4.30;;;18.50;69.20;;;;;;4975419;28;20089;-72
2021/05/13 05:52:29;;;;;;;13.30;4.82;;;18.50;68.50;;;;;;4975397;28;20406;-72
2021/05/13 05:54:56;;;;;;;5.57;5.00;;;18.30;69.20;;;;;;4957493;28;20094;-72
2021/05/13 05:57:22;;;;;;;8.93;4.57;;;18.40;69.30;;;;;;4983552;28;20126;-72
2021/05/13 05:59:48;;;;;;;6.75;4.22;;;18.50;68.50;;;;;;4992009;28;20034;-72
2021/05/13 06:02:13;;;;;;;8.50;4.40;;;18.80;68.10;;;;;;4977041;28;20027;-70
2021/05/13 06:04:39;;;;;;;5.72;4.43;;;18.80;68.50;;;;;;4988611;28;20026;-72
2021/05/13 06:07:06;;;;;;;7.50;4.05;;;18.90;68.00;;;;;;4994417;28;20038;-71
2021/05/13 06:09:32;;;;;;;7.63;4.00;;;19.00;67.90;;;;;;4994600;28;20030;-69
2021/05/13 06:11:58;;;;;;;6.68;4.30;;;19.00;67.20;;;;;;4994247;28;20022;-70
2021/05/13 06:14:23;;;;;;;5.07;3.85;;;19.20;67.10;;;;;;4993885;28;20023;-69
2021/05/13 06:16:49;;;;;;;7.55;4.35;;;19.40;67.00;;;;;;4994252;28;20050;-66
2021/05/13 06:19:18;;;;;;;7.95;3.75;;;19.30;66.70;;;;;;4993888;28;20109;-69
2021/05/13 06:21:44;;;;;;;9.25;4.28;;;19.50;66.10;;;;;;4993955;28;20033;-69
2021/05/13 06:24:11;;;;;;;7.88;4.07;;;19.70;65.20;;;;;;4994140;28;20018;-69
2021/05/13 06:26:38;;;;;;;4.90;4.40;;;19.70;64.70;;;;;;4994027;28;20029;-69
2021/05/13 06:29:05;;;;;;;6.13;4.05;;;19.50;65.10;;;;;;4994093;28;20022;-68
2021/05/13 06:31:32;;;;;;;7.22;4.00;;;19.60;64.90;;;;;;4993788;28;20108;-69
2021/05/13 06:33:58;;;;;;;6.32;3.90;;;19.70;64.30;;;;;;4993776;28;20014;-69
2021/05/13 06:36:24;;;;;;;6.00;3.90;;;19.70;64.50;;;;;;4993650;28;20443;-69
2021/05/13 06:38:49;;;;;;;7.20;4.10;;;19.80;64.20;;;;;;4976194;28;20042;-69
2021/05/13 06:41:15;;;;;;;7.30;4.20;;;19.60;64.00;;;;;;4993576;28;20077;-68
2021/05/13 06:43:41;;;;;;;7.30;4.18;;;19.40;65.10;;;;;;4993311;28;20058;-69
2021/05/13 06:46:07;;;;;;;9.93;4.18;;;19.50;65.90;;;;;;4993640;28;20022;-68
2021/05/13 06:48:36;;;;;;;7.43;4.22;;;19.40;65.60;;;;;;4993675;28;20026;-70
2021/05/13 06:51:03;;;;;;;7.60;4.40;;;19.40;65.40;;;;;;4993499;28;20034;-69
2021/05/13 06:53:29;;;;;;;5.50;4.10;;;19.60;64.90;;;;;;4993136;28;20273;-70
2021/05/13 06:55:55;;;;;;;7.82;3.47;;;19.70;64.60;;;;;;4993452;28;20074;-68
2021/05/13 06:58:21;;;;;;;6.85;3.80;;;19.90;64.60;;;;;;4993147;28;20448;-69
2021/05/13 07:00:48;;;;;;;5.15;3.53;;;20.00;63.70;;;;;;4983011;28;20475;-71
2021/05/13 07:03:15;;;;;;;4.85;3.83;;;19.90;63.90;;;;;;4989844;28;20035;-70
2021/05/13 07:05:42;;;;;;;9.10;3.70;;;19.80;64.60;;;;;;4993294;28;20105;-72
2021/05/13 07:08:09;;;;;;;4.90;3.72;;;19.70;64.20;;;;;;4979541;28;20031;-71
2021/05/13 07:10:38;;;;;;;12.85;3.60;;;19.90;63.80;;;;;;4986246;28;20499;-72
2021/05/13 07:13:05;;;;;;;5.53;3.15;;;19.90;63.40;;;;;;4987194;28;20109;-74
2021/05/13 07:15:32;;;;;;;5.03;3.60;;;20.10;63.20;;;;;;4992910;28;20483;-73
2021/05/13 07:17:59;;;;;;;10.75;3.60;;;20.20;63.20;;;;;;4993303;28;20055;-69
2021/05/13 07:20:25;;;;;;;6.70;2.70;;;20.10;62.20;;;;;;4993041;28;20463;-65
2021/05/13 07:22:52;;;;;;;6.70;2.38;;;20.10;63.70;;;;;;4992839;28;20033;-65
2021/05/13 07:25:19;;;;;;;3.42;3.13;;;20.40;64.00;;;;;;4993078;28;20045;-65
2021/05/13 07:27:45;;;;;;;7.18;3.22;;;20.50;62.10;;;;;;4992946;28;20378;-65
2021/05/13 07:30:13;;;;;;;7.32;3.45;;;20.10;63.10;;;;;;4992693;28;20092;-66
2021/05/13 07:32:39;;;;;;;7.45;3.17;;;19.80;64.50;;;;;;4992754;28;20109;-66
2021/05/13 07:35:06;;;;;;;9.10;3.60;;;19.70;64.00;;;;;;4989604;28;20630;-66
2021/05/13 07:37:33;;;;;;;6.90;2.88;;;19.60;65.40;;;;;;4991556;28;20446;-64
2021/05/13 07:39:59;;;;;;;7.15;3.47;;;19.70;64.50;;;;;;4992469;28;20030;-66
2021/05/13 07:42:25;;;;;;;3.65;3.13;;;19.70;64.80;;;;;;4992625;28;20117;-67
2021/05/13 07:44:51;;;;;;;4.82;2.67;;;19.40;64.20;;;;;;4982849;28;20022;-67
2021/05/13 07:47:19;;;;;;;4.97;3.25;;;19.60;65.80;;;;;;4992388;28;20400;-67
2021/05/13 07:49:45;;;;;;;10.23;4.60;;;19.70;65.10;;;;;;4992171;28;20022;-69
2021/05/13 07:52:11;;;;;;;5.25;3.30;;;19.60;64.50;;;;;;4982546;28;20022;-69
2021/05/13 07:54:37;;;;;;;5.30;3.45;;;19.70;64.70;;;;;;4972936;28;20042;-69
2021/05/13 07:57:07;;;;;;;3.83;2.97;;;19.70;64.80;;;;;;4971767;28;20046;-71
2021/05/13 07:59:33;;;;;;;3.78;2.90;;;19.70;64.30;;;;;;4972852;28;20028;-69
2021/05/13 08:01:58;;;;;;;6.40;3.13;;;19.70;64.60;;;;;;4986072;28;20026;-69
2021/05/13 08:04:26;;;;;;;3.97;2.80;;;19.70;64.30;;;;;;4972688;28;20019;-69
2021/05/13 08:06:51;;;;;;;4.97;3.13;;;19.80;64.40;;;;;;4977175;28;20015;-69
2021/05/13 08:09:17;;;;;;;3.65;2.72;;;19.90;63.50;;;;;;4974645;28;20080;-69
2021/05/13 08:11:43;;;;;;;3.70;2.70;;;20.00;63.80;;;;;;4978111;28;20506;-69
2021/05/13 08:14:08;;;;;;;8.63;3.05;;;20.00;62.90;;;;;;4992036;28;20254;-69
2021/05/13 08:16:34;;;;;;;6.38;3.05;;;20.10;62.70;;;;;;4977566;28;20061;-69
2021/05/13 08:19:00;;;;;;;5.38;2.83;;;20.10;62.80;;;;;;4972492;28;20030;-69
2021/05/13 08:21:26;;;;;;;6.47;2.78;;;20.00;62.50;;;;;;4984712;28;20081;-69
2021/05/13 08:23:52;;;;;;;3.13;2.40;;;20.10;63.10;;;;;;4973907;28;20022;-69
2021/05/13 08:26:17;;;;;;;5.03;2.95;;;20.20;62.20;;;;;;4972401;28;20042;-71
2021/05/13 08:28:43;;;;;;;3.88;2.30;;;20.10;61.10;;;;;;4988490;28;20027;-69
2021/05/13 08:31:09;;;;;;;8.65;2.80;;;20.10;61.60;;;;;;4974458;28;20533;-71
2021/05/13 08:33:35;;;;;;;8.15;2.50;;;20.10;61.70;;;;;;4978119;28;20107;-69
2021/05/13 08:36:00;;;;;;;4.03;2.38;;;20.30;61.40;;;;;;4991952;28;20030;-69
2021/05/13 08:38:26;;;;;;;7.18;2.50;;;20.30;60.30;;;;;;4979611;28;20110;-69
2021/05/13 08:40:52;;;;;;;6.10;2.78;;;20.50;60.30;;;;;;4972424;28;20015;-69
2021/05/13 08:43:26;;;;;;;4.10;2.30;;;20.60;60.10;;;;;;4978567;28;20030;-70
2021/05/13 08:45:52;;;;;;;3.45;2.45;;;20.70;59.90;;;;;;4978346;28;20026;-69
2021/05/13 08:48:19;;;;;;;9.45;2.80;;;20.70;59.70;;;;;;4977727;28;20065;-70
2021/05/13 08:50:45;;;;;;;6.68;2.22;;;20.80;60.40;;;;;;4991748;28;20041;-69
2021/05/13 08:53:11;;;;;;;7.78;2.40;;;20.90;59.30;;;;;;4978198;28;20481;-69
2021/05/13 08:55:37;;;;;;;5.90;2.33;;;20.90;59.50;;;;;;4981588;28;20480;-69
2021/05/13 08:58:05;;;;;;;4.22;1.95;;;21.00;58.60;;;;;;4972148;28;20058;-69
2021/05/13 09:00:31;;;;;;;5.80;2.20;;;21.20;58.80;;;;;;4955164;28;20492;-69
2021/05/13 09:02:56;;;;;;;4.55;2.08;;;21.20;58.40;;;;;;4986291;28;20114;-69
2021/05/13 09:05:23;;;;;;;6.70;2.10;;;21.30;59.20;;;;;;4991392;28;20027;-69
2021/05/13 09:07:54;;;;;;;3.40;2.00;;;21.40;59.00;;;;;;4992870;28;20046;-69
2021/05/13 09:10:22;;;;;;;3.42;2.10;;;21.40;58.40;;;;;;4976365;28;20034;-69
2021/05/13 09:12:50;;;;;;;3.58;2.30;;;21.50;59.20;;;;;;4987365;28;20030;-70
2021/05/13 09:15:19;;;;;;;6.75;2.55;;;21.50;59.20;;;;;;4977856;28;20109;-70
2021/05/13 09:17:49;;;;;;;6.72;2.53;;;21.60;59.10;;;;;;4968626;28;20549;-70
2021/05/13 09:20:26;;;;;;;8.18;2.30;;;21.50;59.10;;;;;;4981678;28;21480;-70
2021/05/13 09:22:53;;;;;;;6.57;2.47;;;21.60;59.00;;;;;;4995262;28;20053;-70
2021/05/13 09:25:19;;;;;;;5.95;2.55;;;21.60;59.00;;;;;;4981693;28;20042;-69
2021/05/13 09:27:51;;;;;;;3.70;2.55;;;21.50;59.10;;;;;;4995091;28;20034;-69
2021/05/13 09:30:22;;;;;;;5.63;2.30;;;21.60;59.40;;;;;;4981559;28;20023;-69
2021/05/13 09:32:53;;;;;;;15.23;3.10;;;21.70;59.70;;;;;;4987779;28;20038;-69
2021/05/13 09:35:22;;;;;;;9.52;2.53;;;21.80;59.60;;;;;;4989733;28;20553;-69
2021/05/13 09:37:49;;;;;;;12.30;2.67;;;21.80;59.10;;;;;;4994856;28;20073;-69
2021/05/13 09:40:31;;;;;;;3.78;2.40;;;21.80;58.80;;;;;;4981586;28;20039;-70
2021/05/13 09:43:25;;;;;;;5.80;2.42;;;21.60;59.30;;;;;;4982738;28;20056;-69
2021/05/13 09:45:58;;;;;;;7.93;2.58;;;21.70;59.20;;;;;;4981831;28;20026;-69
2021/05/13 09:48:42;;;;;;;4.30;2.65;;;21.60;59.50;;;;;;4975130;28;20476;-69
2021/05/13 09:51:39;;;;;;;4.30;2.00;;;21.70;59.30;;;;;;4988722;28;20027;-70
2021/05/13 09:54:14;;;;;;;7.80;2.80;;;21.70;59.10;;;;;;4986273;28;20096;-70
2021/05/13 09:56:51;;;;;;;3.63;2.60;;;21.70;58.70;;;;;;4963526;28;20406;-70
2021/05/13 09:59:23;;;;;;;3.90;2.05;;;21.70;58.80;;;;;;4983202;28;20038;-69
2021/05/13 10:01:51;;;;;;;8.48;2.97;;;21.70;58.60;;;;;;4980044;28;20034;-69
2021/05/13 10:04:18;;;;;;;3.35;2.30;;;21.70;58.70;;;;;;4983470;28;20039;-69
2021/05/13 10:06:43;;;;;;;4.72;2.72;;;21.60;59.20;;;;;;4978283;28;20475;-69
2021/05/13 10:09:13;;;;;;;8.13;2.65;;;21.50;59.00;;;;;;4994260;28;20032;-69
2021/05/13 10:11:41;;;;;;;5.80;2.55;;;21.50;59.00;;;;;;4980311;28;20452;-69
2021/05/13 10:14:07;;;;;;;5.47;2.10;;;21.50;59.40;;;;;;4994596;28;20108;-69
2021/05/13 10:16:34;;;;;;;8.63;2.78;;;21.50;59.40;;;;;;4993846;28;20070;-70
2021/05/13 10:19:06;;;;;;;6.15;2.33;;;21.60;59.10;;;;;;4986664;28;20088;-70
2021/05/13 10:21:33;;;;;;;7.15;2.30;;;21.60;59.00;;;;;;4974558;28;20019;-70
2021/05/13 10:23:59;;;;;;;6.88;2.35;;;21.50;59.00;;;;;;4974718;28;20045;-69
2021/05/13 10:26:36;;;;;;;6.22;2.55;;;21.50;58.80;;;;;;4985951;28;20389;-69
2021/05/13 10:29:24;;;;;;;8.80;2.70;;;21.40;59.00;;;;;;4993773;28;20011;-69
2021/05/13 10:32:10;;;;;;;6.53;2.60;;;21.50;59.20;;;;;;4993653;28;20033;-69
2021/05/13 10:34:42;;;;;;;6.53;3.20;;;21.60;59.00;;;;;;4974301;28;20035;-69
2021/05/13 10:37:18;;;;;;;7.38;2.60;;;21.60;59.10;;;;;;4975826;28;20034;-69
2021/05/13 10:40:40;;;;;;;9.00;3.28;;;21.50;58.70;;;;;;4984634;28;20030;-69
2021/05/13 10:43:06;;;;;;;9.13;2.72;;;21.50;59.10;;;;;;4976497;28;20042;-69
2021/05/13 10:45:45;;;;;;;3.90;2.28;;;21.60;58.50;;;;;;4982803;28;20023;-69
2021/05/13 10:48:25;;;;;;;5.17;2.60;;;21.50;58.40;;;;;;4970346;28;20031;-70
2021/05/13 10:50:57;;;;;;;6.88;2.60;;;21.50;58.40;;;;;;4974156;28;20354;-69
2021/05/13 10:53:35;;;;;;;10.63;2.85;;;21.40;58.60;;;;;;4987555;28;20106;-69
2021/05/13 10:56:12;;;;;;;6.13;2.50;;;21.50;58.50;;;;;;4974187;28;20101;-69
2021/05/13 10:59:13;;;;;;;4.32;2.90;;;21.50;58.30;;;;;;4956422;28;20520;-70
2021/05/13 11:01:53;;;;;;;6.28;2.40;;;21.40;58.20;;;;;;4987338;28;20025;-69
2021/05/13 11:04:22;;;;;;;5.40;2.38;;;21.50;58.70;;;;;;4974194;28;20043;-69
2021/05/13 11:06:51;;;;;;;5.65;2.60;;;21.50;58.60;;;;;;4987323;28;20035;-69
2021/05/13 11:09:39;;;;;;;8.88;2.83;;;21.50;58.50;;;;;;4973715;28;20034;-69
2021/05/13 11:12:13;;;;;;;8.82;2.30;;;21.60;58.40;;;;;;4978804;28;20398;-69
2021/05/13 11:15:00;;;;;;;14.85;2.83;;;21.60;58.90;;;;;;4980383;28;20029;-69
2021/05/13 11:20:20;;;;;;;12.90;3.05;;;21.70;58.40;;;;;;4990314;28;20141;-69
2021/05/13 11:22:56;;;;;;;8.18;3.15;;;21.80;58.50;;;;;;4983524;28;20026;-70
2021/05/13 11:25:22;;;;;;;5.10;2.90;;;21.80;58.30;;;;;;4975852;28;20394;-70
2021/05/13 11:27:48;;;;;;;6.53;2.72;;;21.80;58.40;;;;;;4992592;28;20042;-69
2021/05/13 11:30:15;;;;;;;5.72;2.92;;;21.90;58.30;;;;;;4977775;28;20546;-69
2021/05/13 11:32:41;;;;;;;22.15;3.10;;;22.00;58.30;;;;;;4979944;28;20514;-69
2021/05/13 11:35:08;;;;;;;6.93;3.05;;;22.10;58.20;;;;;;4979771;28;20041;-70
2021/05/13 11:37:40;;;;;;;8.00;2.83;;;22.20;58.30;;;;;;4986770;28;20038;-69
2021/05/13 11:40:25;;;;;;;6.95;2.88;;;22.20;57.90;;;;;;4985927;28;20031;-69
2021/05/13 11:43:14;;;;;;;7.53;2.40;;;22.20;58.00;;;;;;4979792;28;20015;-69
2021/05/13 11:45:40;;;;;;;9.80;2.85;;;22.20;57.80;;;;;;4992461;28;20023;-69
2021/05/13 11:48:27;;;;;;;6.05;3.10;;;22.30;57.90;;;;;;4992709;28;20434;-69
2021/05/13 11:50:58;;;;;;;4.88;2.50;;;22.30;57.60;;;;;;4979781;28;20027;-69
2021/05/13 11:53:25;;;;;;;5.95;2.85;;;22.30;57.60;;;;;;4978990;28;20081;-69
2021/05/13 11:55:51;;;;;;;8.90;2.90;;;22.40;57.40;;;;;;4992096;28;20050;-69
2021/05/13 11:58:50;;;;;;;4.20;2.33;;;22.40;57.50;;;;;;4975222;28;20026;-69
2021/05/13 12:01:28;;;;;;;7.93;2.73;;;22.50;57.60;;;;;;4977775;28;20141;-69
2021/05/13 12:04:06;;;;;;;13.38;3.00;;;22.50;57.10;;;;;;4984288;28;20349;-69
2021/05/13 12:06:55;;;;;;;9.02;2.90;;;22.50;57.20;;;;;;4987866;28;20033;-69
2021/05/13 12:09:22;;;;;;;14.48;2.70;;;22.50;56.80;;;;;;4981609;28;20391;-69
2021/05/13 12:11:50;;;;;;;8.48;3.17;;;22.70;57.10;;;;;;4972459;28;20482;-69
2021/05/13 12:14:23;;;;;;;8.43;2.75;;;22.80;56.60;;;;;;4972644;28;20424;-70
2021/05/13 12:17:00;;;;;;;4.15;2.50;;;22.80;56.30;;;;;;4975048;28;20491;-69
2021/05/13 12:19:27;;;;;;;9.32;2.70;;;22.80;56.50;;;;;;4992120;28;20040;-70
2021/05/13 12:21:58;;;;;;;6.57;2.70;;;22.90;56.30;;;;;;4978283;28;20412;-69
2021/05/13 12:24:31;;;;;;;14.70;2.60;;;22.90;55.50;;;;;;4992317;28;20110;-69
2021/05/13 12:26:58;;;;;;;8.25;2.55;;;23.10;53.80;;;;;;4992080;28;20038;-69
2021/05/13 12:29:24;;;;;;;6.95;2.50;;;23.30;53.90;;;;;;4984132;28;20030;-69
2021/05/13 12:31:50;;;;;;;9.02;2.47;;;23.50;53.90;;;;;;4986315;28;20033;-70
2021/05/13 12:34:36;;;;;;;8.82;3.03;;;23.60;54.10;;;;;;4992140;28;20026;-69
2021/05/13 12:37:04;;;;;;;11.15;2.50;;;23.60;54.20;;;;;;4977549;28;20022;-69
2021/05/13 12:39:38;;;;;;;11.27;2.95;;;23.60;55.10;;;;;;4972623;28;20018;-69
2021/05/13 12:42:22;;;;;;;12.30;2.92;;;23.70;53.90;;;;;;4972614;28;20038;-69
2021/05/13 12:44:48;;;;;;;14.43;2.40;;;23.80;52.50;;;;;;4994583;28;20022;-70
2021/05/13 12:47:13;;;;;;;12.02;2.53;;;23.80;52.60;;;;;;4995810;28;20113;-69
2021/05/13 12:49:39;;;;;;;11.43;2.38;;;23.90;52.00;;;;;;4995454;28;20356;-69
2021/05/13 12:52:14;;;;;;;7.70;1.98;;;23.90;51.90;;;;;;4987253;28;20026;-70
2021/05/13 12:54:41;;;;;;;16.02;2.88;;;24.00;51.20;;;;;;4978249;28;20034;-70
2021/05/13 12:57:16;;;;;;;10.52;2.35;;;24.00;50.80;;;;;;4995477;28;20051;-70
2021/05/13 12:59:56;;;;;;;5.65;2.30;;;24.00;50.80;;;;;;4995236;28;20386;-69
2021/05/13 13:02:24;;;;;;;3.85;2.17;;;24.00;51.00;;;;;;4995731;28;20026;-69
2021/05/13 13:05:01;;;;;;;5.97;2.40;;;24.00;51.80;;;;;;4981672;28;20069;-70
2021/05/13 13:07:46;;;;;;;10.60;2.40;;;24.10;50.30;;;;;;4986154;28;20117;-69
2021/05/13 13:10:32;;;;;;;5.95;2.00;;;24.10;50.80;;;;;;4980100;28;20022;-69
2021/05/13 13:13:36;;;;;;;15.75;2.45;;;24.20;50.50;;;;;;4995360;28;20018;-69
2021/05/13 13:18:23;;;;;;;5.07;2.20;;;24.20;50.80;;;;;;4989700;28;20022;-69
2021/05/13 13:20:49;;;;;;;9.02;1.98;;;24.20;51.20;;;;;;4982886;28;20033;-69
2021/05/13 13:23:31;;;;;;;6.68;2.25;;;24.20;51.70;;;;;;4995245;28;20112;-69
2021/05/13 13:26:04;;;;;;;13.25;2.13;;;24.30;50.70;;;;;;4975463;28;20611;-69
2021/05/13 13:28:31;;;;;;;8.82;2.70;;;24.20;50.80;;;;;;4975934;28;20027;-70
2021/05/13 13:31:01;;;;;;;11.38;2.55;;;24.30;50.70;;;;;;4975439;28;20023;-69
2021/05/13 13:33:28;;;;;;;8.43;2.50;;;24.30;49.90;;;;;;4988690;28;20018;-70
2021/05/13 13:35:55;;;;;;;10.73;2.83;;;24.30;49.20;;;;;;4995006;28;20030;-69
2021/05/13 13:38:22;;;;;;;17.42;3.33;;;24.30;49.10;;;;;;4995603;28;20557;-70
2021/05/13 13:40:50;;;;;;;10.45;2.95;;;24.40;48.70;;;;;;4980717;28;20487;-69
2021/05/13 13:43:16;;;;;;;8.90;2.78;;;24.40;48.40;;;;;;4977732;28;20053;-69
2021/05/13 13:45:43;;;;;;;9.80;2.90;;;24.30;48.40;;;;;;4982840;28;20530;-69
2021/05/13 13:48:11;;;;;;;7.07;2.83;;;24.40;48.60;;;;;;4988750;28;20030;-70
2021/05/13 13:50:39;;;;;;;13.82;3.40;;;24.40;48.80;;;;;;4986577;28;20026;-70
2021/05/13 13:53:06;;;;;;;8.38;3.47;;;24.40;48.30;;;;;;4994648;28;20022;-70
2021/05/13 13:55:33;;;;;;;13.85;4.35;;;24.40;48.60;;;;;;4985469;28;20385;-69
2021/05/13 13:57:59;;;;;;;10.63;3.05;;;24.40;48.40;;;;;;4988681;28;20037;-70
2021/05/13 14:00:25;;;;;;;11.40;3.40;;;24.40;48.60;;;;;;4982519;28;20038;-69
2021/05/13 14:02:52;;;;;;;10.73;3.10;;;24.40;48.30;;;;;;4994197;28;20018;-69
2021/05/13 14:05:19;;;;;;;6.57;3.17;;;24.40;48.50;;;;;;4975132;28;20522;-69
2021/05/13 14:07:44;;;;;;;8.73;3.65;;;24.40;48.70;;;;;;4986215;28;20538;-69
2021/05/13 14:10:11;;;;;;;6.82;3.42;;;24.40;48.40;;;;;;4976754;28;20105;-69
2021/05/13 14:12:38;;;;;;;33.75;4.88;;;24.40;48.30;;;;;;4984318;28;20034;-69
2021/05/13 14:15:08;;;;;;;14.68;3.55;;;24.40;47.80;;;;;;4992612;28;20034;-69
2021/05/13 14:17:34;;;;;;;6.60;3.25;;;24.40;48.70;;;;;;4957442;28;20027;-69
2021/05/13 14:20:04;;;;;;;8.40;2.97;;;24.40;48.50;;;;;;4975141;28;20394;-69
2021/05/13 14:22:31;;;;;;;9.85;2.70;;;24.40;49.50;;;;;;4994007;28;20026;-70
2021/05/13 14:24:57;;;;;;;14.57;2.92;;;24.40;49.90;;;;;;4981029;28;20121;-70
2021/05/13 14:27:23;;;;;;;11.10;2.80;;;24.40;49.60;;;;;;4962311;28;20082;-70
2021/05/13 14:29:48;;;;;;;7.18;2.85;;;24.40;49.30;;;;;;4993692;28;20018;-69
2021/05/13 14:32:14;;;;;;;8.90;2.63;;;24.30;49.80;;;;;;4993765;28;20019;-69
2021/05/13 14:34:41;;;;;;;8.18;2.95;;;24.40;49.40;;;;;;4993917;28;20042;-69
2021/05/13 14:37:08;;;;;;;10.30;2.90;;;24.40;50.50;;;;;;4992209;28;20037;-70
2021/05/13 14:39:34;;;;;;;11.57;3.17;;;24.30;49.80;;;;;;4981935;28;20034;-70
2021/05/13 14:42:00;;;;;;;10.80;3.08;;;24.40;49.90;;;;;;4980249;28;20034;-69
2021/05/13 14:44:25;;;;;;;7.28;3.40;;;24.30;50.00;;;;;;4987935;28;20030;-69
2021/05/13 14:46:52;;;;;;;11.90;3.35;;;24.30;48.70;;;;;;4981612;28;20042;-69
2021/05/13 14:49:29;;;;;;;13.00;3.20;;;24.30;48.40;;;;;;4993543;28;20109;-69
2021/05/13 14:51:56;;;;;;;10.02;4.45;;;24.30;48.20;;;;;;4973874;28;20058;-69
2021/05/13 14:54:22;;;;;;;9.02;3.67;;;24.30;48.40;;;;;;4974030;28;20026;-69
2021/05/13 14:56:54;;;;;;;16.45;7.50;;;24.30;48.80;;;;;;4992783;28;20053;-69
2021/05/13 14:59:20;;;;;;;15.45;8.70;;;24.30;48.90;;;;;;4981122;28;20027;-69
2021/05/13 15:01:46;;;;;;;17.95;4.43;;;24.30;48.50;;;;;;4978260;28;20105;-69
2021/05/13 15:04:12;;;;;;;11.80;4.47;;;24.30;48.20;;;;;;4993774;28;20026;-69
2021/05/13 15:06:38;;;;;;;11.45;3.72;;;24.20;48.30;;;;;;4976278;28;20082;-69
2021/05/13 15:09:04;;;;;;;12.88;3.67;;;24.20;48.10;;;;;;4973824;28;20073;-69
2021/05/13 15:11:29;;;;;;;11.18;4.35;;;24.20;48.10;;;;;;4987353;28;20030;-69
2021/05/13 15:13:55;;;;;;;8.18;3.83;;;24.20;48.20;;;;;;4980133;28;20014;-69
2021/05/13 15:16:21;;;;;;;18.40;8.00;;;24.20;48.00;;;;;;4980649;28;20039;-69
2021/05/13 15:18:47;;;;;;;9.85;4.50;;;24.20;48.60;;;;;;4973684;28;20019;-69
2021/05/13 15:21:12;;;;;;;12.60;4.38;;;24.20;48.60;;;;;;4966496;28;20424;-69
2021/05/13 15:23:38;;;;;;;18.05;4.70;;;24.20;48.70;;;;;;4992822;28;20442;-69
2021/05/13 15:26:04;;;;;;;8.95;4.40;;;24.20;49.00;;;;;;4984614;28;20158;-69
2021/05/13 15:28:29;;;;;;;10.13;3.95;;;24.20;48.70;;;;;;4974242;28;20050;-69
2021/05/13 15:30:55;;;;;;;12.85;3.90;;;24.20;48.70;;;;;;4992799;28;20018;-69
2021/05/13 15:33:21;;;;;;;9.95;4.60;;;24.20;48.90;;;;;;4992639;28;20026;-69
2021/05/13 15:35:47;;;;;;;10.00;4.18;;;24.10;48.70;;;;;;4992434;28;20022;-69
2021/05/13 15:38:13;;;;;;;8.85;4.43;;;24.10;48.90;;;;;;4992671;28;20022;-69
2021/05/13 15:40:41;;;;;;;9.93;4.50;;;24.10;48.50;;;;;;4976033;28;20030;-69
2021/05/13 15:43:07;;;;;;;12.50;4.75;;;24.10;48.80;;;;;;4977855;28;20018;-69
2021/05/13 15:45:33;;;;;;;10.18;4.28;;;24.10;48.70;;;;;;4992730;28;20494;-68
2021/05/13 15:47:59;;;;;;;11.20;4.68;;;24.00;48.90;;;;;;4978564;28;20062;-69
2021/05/13 15:50:25;;;;;;;11.75;5.00;;;24.00;49.00;;;;;;4983348;28;20460;-69
2021/05/13 15:52:51;;;;;;;9.05;5.00;;;24.00;49.00;;;;;;4987628;28;20064;-69
2021/05/13 15:55:16;;;;;;;14.23;5.30;;;24.00;48.60;;;;;;4986411;28;20291;-69
2021/05/13 15:57:42;;;;;;;12.73;4.82;;;23.90;48.80;;;;;;4991108;28;20133;-69
2021/05/13 16:00:08;;;;;;;9.02;4.93;;;23.90;49.60;;;;;;4992283;28;20482;-69
2021/05/13 16:02:34;;;;;;;13.98;5.78;;;23.90;49.80;;;;;;4992599;28;20026;-69
2021/05/13 16:05:00;;;;;;;10.73;5.60;;;23.90;49.30;;;;;;4992265;28;20089;-69
2021/05/13 16:07:25;;;;;;;13.95;5.10;;;23.90;49.30;;;;;;4992270;28;20073;-69
2021/05/13 16:09:53;;;;;;;14.68;6.70;;;23.80;49.40;;;;;;4992464;28;20026;-69
2021/05/13 16:12:19;;;;;;;12.13;6.00;;;23.80;49.30;;;;;;4992031;28;20030;-70
2021/05/13 16:14:49;;;;;;;11.35;6.43;;;23.70;49.30;;;;;;4974648;28;20046;-70
2021/05/13 16:17:15;;;;;;;14.98;5.55;;;23.70;49.30;;;;;;4983985;28;20026;-72
2021/05/13 16:19:42;;;;;;;9.13;5.50;;;23.70;49.20;;;;;;4992248;28;20487;-68
2021/05/13 16:22:08;;;;;;;17.98;6.07;;;23.60;49.60;;;;;;4992340;28;20030;-71
2021/05/13 16:24:34;;;;;;;7.63;5.82;;;23.70;50.00;;;;;;4992234;28;20113;-71
2021/05/13 16:26:59;;;;;;;16.63;6.40;;;23.60;49.90;;;;;;4991819;28;20038;-71
2021/05/13 16:29:25;;;;;;;14.98;5.90;;;23.60;50.10;;;;;;4992452;28;20034;-71
2021/05/13 16:31:51;;;;;;;10.95;6.03;;;23.60;50.00;;;;;;4992128;28;20026;-71
2021/05/13 16:34:16;;;;;;;11.40;5.90;;;23.60;49.90;;;;;;4992475;28;20030;-71
2021/05/13 16:36:42;;;;;;;16.80;6.18;;;23.60;50.00;;;;;;4992188;28;20398;-71
2021/05/13 16:39:08;;;;;;;9.93;5.22;;;23.50;50.10;;;;;;4974697;28;20483;-71
2021/05/13 16:41:34;;;;;;;16.55;5.97;;;23.40;50.20;;;;;;4991769;28;20026;-71
2021/05/13 16:44:00;;;;;;;11.45;6.15;;;23.40;50.10;;;;;;4991951;28;20130;-71
2021/05/13 16:46:26;;;;;;;9.80;6.30;;;23.40;50.60;;;;;;4991870;28;20039;-71
2021/05/13 16:48:51;;;;;;;12.10;6.32;;;23.40;50.60;;;;;;4991709;28;20460;-71
2021/05/13 16:51:17;;;;;;;10.52;6.05;;;23.30;50.40;;;;;;4991833;28;20110;-71
2021/05/13 16:53:43;;;;;;;11.27;5.63;;;23.30;50.80;;;;;;4992061;28;20050;-71
2021/05/13 16:56:09;;;;;;;10.00;6.15;;;23.30;51.00;;;;;;4991987;28;20066;-71